createdAt,value
2022-09-07T00:02:44.929Z,96822.47
2022-09-07T00:06:41.949Z,96826.56
2022-09-07T00:10:39.095Z,96863.50
2022-09-07T00:14:36.128Z,96866.94
2022-09-07T00:18:33.379Z,96882.53
2022-09-07T00:22:30.415Z,96825.94
2022-09-07T00:26:30.353Z,96873.94
2022-09-07T00:30:27.496Z,96855.75
2022-09-07T00:34:24.527Z,96794.34
2022-09-07T00:38:21.733Z,96849.75
2022-09-07T00:42:23.093Z,96842.50
2022-09-07T00:46:28.647Z,96793.91
2022-09-07T00:50:42.887Z,96830.09
2022-09-07T00:54:47.772Z,96845.38
2022-09-07T00:58:45.057Z,96841.78
2022-09-07T01:02:42.511Z,96857.81
2022-09-07T01:06:41.151Z,96843.06
2022-09-07T01:10:38.896Z,96851.19
2022-09-07T01:14:41.893Z,96859.06
2022-09-07T01:19:01.788Z,96841.69
2022-09-07T01:23:16.468Z,96860.25
2022-09-07T01:28:20.624Z,96851.69
2022-09-07T01:32:53.763Z,96854.91
2022-09-07T01:37:27.581Z,96859.50
2022-09-07T01:42:01.495Z,96857.69
2022-09-07T01:46:03.266Z,96850.91
2022-09-07T01:50:18.972Z,96847.63
2022-09-07T01:54:25.487Z,96840.44
2022-09-07T01:58:33.330Z,96825.16
2022-09-07T02:02:38.613Z,96821.38
2022-09-07T02:06:50.345Z,96838.94
2022-09-07T02:10:55.516Z,96794.41
2022-09-07T02:15:04.202Z,96787.63
2022-09-07T02:19:16.460Z,96836.53
2022-09-07T02:23:28.970Z,96839.41
2022-09-07T02:27:35.793Z,96820.38
2022-09-07T02:31:33.659Z,96831.34
2022-09-07T02:35:30.901Z,96847.31
2022-09-07T02:39:28.002Z,96829.06
2022-09-07T02:43:28.035Z,96837.53
2022-09-07T02:47:46.141Z,96840.72
2022-09-07T02:52:30.317Z,96834.03
2022-09-07T02:56:56.037Z,96847.00
2022-09-07T03:01:15.450Z,96857.13
2022-09-07T03:05:24.745Z,96834.69
2022-09-07T03:09:30.557Z,96842.72
2022-09-07T03:13:29.728Z,96866.13
2022-09-07T03:17:26.828Z,96871.59
2022-09-07T03:21:24.013Z,96852.81
2022-09-07T03:25:22.917Z,96862.09
2022-09-07T03:29:20.412Z,96853.41
2022-09-07T03:33:17.642Z,96836.00
2022-09-07T03:37:14.923Z,96855.88
2022-09-07T03:41:12.619Z,96847.59
2022-09-07T03:45:10.599Z,96852.81
2022-09-07T03:49:07.572Z,96842.38
2022-09-07T03:53:04.566Z,96837.34
2022-09-07T03:57:01.686Z,96842.06
2022-09-07T04:01:01.029Z,96824.91
2022-09-07T04:04:58.180Z,96809.75
2022-09-07T04:08:56.752Z,96824.44
2022-09-07T04:12:53.769Z,96824.09
2022-09-07T04:16:51.109Z,96827.09
2022-09-07T04:20:50.823Z,96853.81
2022-09-07T04:24:50.140Z,96833.94
2022-09-07T04:28:48.157Z,96842.66
2022-09-07T04:32:47.776Z,96828.56
2022-09-07T04:36:44.814Z,96783.03
2022-09-07T04:40:42.170Z,96832.28
2022-09-07T04:44:39.307Z,96843.91
2022-09-07T04:48:36.646Z,96839.25
2022-09-07T04:52:33.658Z,96815.91
2022-09-07T04:56:32.530Z,96843.84
2022-09-07T05:00:29.628Z,96831.88
2022-09-07T05:04:26.653Z,96813.50
2022-09-07T05:08:23.762Z,96842.66
2022-09-07T05:12:20.839Z,96786.06
2022-09-07T05:16:22.000Z,96849.81
2022-09-07T05:20:20.485Z,96814.75
2022-09-07T05:24:18.395Z,96841.53
2022-09-07T05:28:19.275Z,96860.72
2022-09-07T05:32:16.604Z,96837.75
2022-09-07T05:36:14.000Z,96855.13
2022-09-07T05:40:11.818Z,96834.28
2022-09-07T05:48:26.383Z,96856.13
2022-09-07T05:52:23.528Z,96864.75
2022-09-07T05:56:20.505Z,96872.75
2022-09-07T06:00:17.546Z,96869.22
2022-09-07T06:04:14.588Z,96876.59
2022-09-07T06:08:11.579Z,96863.25
2022-09-07T06:12:08.579Z,96847.06
2022-09-07T06:16:08.497Z,96852.00
2022-09-07T06:20:07.498Z,96839.06
2022-09-07T06:24:06.196Z,96860.78
2022-09-07T06:28:03.682Z,96863.78
2022-09-07T06:36:21.154Z,96853.72
2022-09-07T06:40:18.161Z,96815.59
2022-09-07T06:44:15.206Z,96856.00
2022-09-07T06:48:12.229Z,96838.81
2022-09-07T06:52:09.207Z,96850.59
2022-09-07T06:56:09.913Z,96851.16
2022-09-07T07:00:07.541Z,96837.13
2022-09-07T07:04:04.669Z,96845.88
2022-09-07T07:08:01.790Z,96830.41
2022-09-07T07:11:58.790Z,96852.47
2022-09-07T07:16:14.686Z,96857.38
2022-09-07T07:20:11.762Z,96842.94
2022-09-07T07:24:08.956Z,96824.97
2022-09-07T07:32:23.351Z,96831.16
2022-09-07T07:36:27.051Z,96854.94
2022-09-07T07:40:27.684Z,96839.59
2022-09-07T07:44:27.377Z,96855.63
2022-09-07T07:57:03.137Z,96840.97
2022-09-07T08:01:08.305Z,96816.50
2022-09-07T08:05:05.917Z,96855.78
2022-09-07T08:09:02.886Z,96836.41
2022-09-07T08:13:00.342Z,96813.84
2022-09-07T08:16:57.339Z,96829.69
2022-09-07T08:20:58.709Z,96838.59
2022-09-07T08:24:55.681Z,96814.31
2022-09-07T08:28:52.939Z,96849.44
2022-09-07T08:32:49.900Z,96832.09
2022-09-07T08:36:46.841Z,96855.19
2022-09-07T08:40:44.304Z,96806.53
2022-09-07T08:45:12.709Z,96854.72
2022-09-07T08:49:47.735Z,96860.66
2022-09-07T08:53:48.655Z,96853.50
2022-09-07T08:58:04.333Z,96800.38
2022-09-07T09:06:46.350Z,96823.28
2022-09-07T09:11:10.858Z,96857.16
2022-09-07T09:15:31.177Z,96860.09
2022-09-07T09:19:46.215Z,96868.25
2022-09-07T09:23:51.288Z,96835.81
2022-09-07T09:27:50.143Z,96831.94
2022-09-07T09:31:47.467Z,96854.63
2022-09-07T09:35:50.087Z,96853.34
2022-09-07T09:40:02.190Z,96866.16
2022-09-07T09:44:00.470Z,96862.38
2022-09-07T09:48:00.073Z,96851.13
2022-09-07T09:56:15.448Z,96831.28
2022-09-07T10:00:29.338Z,96837.59
2022-09-07T10:04:34.913Z,96832.50
2022-09-07T10:08:37.176Z,96819.13
2022-09-07T10:12:37.122Z,96836.25
2022-09-07T10:16:42.919Z,96828.44
2022-09-07T10:20:39.908Z,96813.47
2022-09-07T10:24:40.288Z,96817.00
2022-09-07T10:33:10.353Z,96810.03
2022-09-07T10:37:12.712Z,96800.38
2022-09-07T10:41:11.600Z,96806.47
2022-09-07T10:45:30.280Z,96806.09
2022-09-07T10:54:54.891Z,96811.47
2022-09-07T11:04:47.758Z,96778.44
2022-09-07T11:13:24.175Z,96794.34
2022-09-07T11:17:26.594Z,96764.47
2022-09-07T11:26:07.838Z,96761.78
2022-09-07T11:30:29.934Z,96759.78
2022-09-07T11:34:36.629Z,96763.63
2022-09-07T11:38:42.064Z,96767.47
2022-09-07T11:42:51.497Z,96773.81
2022-09-07T11:46:55.885Z,96764.78
2022-09-07T11:51:02.459Z,96758.84
2022-09-07T11:55:11.778Z,96755.44
2022-09-07T12:00:11.090Z,96750.44
2022-09-07T12:04:41.858Z,96698.88
2022-09-07T12:09:11.375Z,96734.81
2022-09-07T12:13:35.516Z,96718.16
2022-09-07T12:18:26.711Z,96727.44
2022-09-07T12:22:23.698Z,96718.50
2022-09-07T12:26:36.066Z,96731.09
2022-09-07T12:30:36.067Z,96731.31
2022-09-07T12:34:33.043Z,96726.16
2022-09-07T12:38:34.044Z,96713.03
2022-09-07T12:42:32.673Z,96706.00
2022-09-07T12:46:34.972Z,96710.69
2022-09-07T12:51:01.240Z,96690.63
2022-09-07T12:55:29.132Z,96694.41
2022-09-07T13:00:03.463Z,96694.56
2022-09-07T13:04:27.026Z,96690.03
2022-09-07T13:09:06.451Z,96700.56
2022-09-07T13:13:16.850Z,96666.06
2022-09-07T13:17:33.027Z,96697.00
2022-09-07T13:21:51.027Z,96688.19
2022-09-07T13:25:54.311Z,96693.22
2022-09-07T13:30:05.063Z,96669.50
2022-09-07T13:34:34.012Z,96675.22
2022-09-07T13:38:35.588Z,96673.97
2022-09-07T13:42:35.872Z,96645.31
2022-09-07T13:47:13.486Z,96643.69
2022-09-07T13:51:52.172Z,96650.13
2022-09-07T13:55:58.908Z,96655.03
2022-09-07T13:59:57.239Z,96640.69
2022-09-07T14:03:56.194Z,96665.22
2022-09-07T14:07:53.177Z,96656.53
2022-09-07T14:11:56.502Z,96655.19
2022-09-07T14:15:53.458Z,96641.59
2022-09-07T14:19:51.991Z,96642.97
2022-09-07T14:23:51.491Z,96646.72
2022-09-07T14:27:49.874Z,96641.91
2022-09-07T14:31:47.041Z,96614.06
2022-09-07T14:35:44.379Z,96606.56
2022-09-07T14:39:46.267Z,96627.34
2022-09-07T14:43:56.271Z,96621.94
2022-09-07T14:47:56.445Z,96622.53
2022-09-07T14:51:54.906Z,96614.31
2022-09-07T14:56:03.522Z,96623.84
2022-09-07T15:00:32.122Z,96615.88
2022-09-07T15:04:31.311Z,96618.00
2022-09-07T15:08:47.026Z,96618.88
2022-09-07T15:12:47.312Z,96535.41
2022-09-07T15:21:13.788Z,96593.34
2022-09-07T15:25:11.636Z,96601.63
2022-09-07T15:29:11.581Z,96596.09
2022-09-07T15:33:09.183Z,96579.28
2022-09-07T15:38:01.114Z,96552.66
2022-09-07T15:41:24.571Z,96562.59
2022-09-07T15:45:21.759Z,96544.19
2022-09-07T15:49:18.756Z,96546.19
2022-09-07T15:57:56.734Z,96540.88
2022-09-07T16:01:51.938Z,96539.81
2022-09-07T16:05:49.420Z,96542.31
2022-09-07T16:09:49.223Z,96521.84
2022-09-07T16:13:54.838Z,96541.28
2022-09-07T16:17:53.823Z,96543.06
2022-09-07T16:21:51.132Z,96550.50
2022-09-07T16:26:01.240Z,96565.06
2022-09-07T16:29:59.594Z,96554.66
2022-09-07T16:33:58.161Z,96558.13
2022-09-07T16:42:12.280Z,96554.84
2022-09-07T16:46:14.729Z,96557.50
2022-09-07T16:50:11.717Z,96560.94
2022-09-07T16:54:13.876Z,96556.81
2022-09-07T17:02:27.849Z,96542.00
2022-09-07T17:06:28.551Z,96543.63
2022-09-07T17:10:26.252Z,96528.31
2022-09-07T17:14:23.233Z,96533.44
2022-09-07T17:19:28.869Z,96518.47
2022-09-07T17:22:39.685Z,96527.06
2022-09-07T17:26:39.515Z,96530.56
2022-09-07T17:30:39.475Z,96523.09
2022-09-07T17:34:36.874Z,96530.06
2022-09-07T17:47:12.981Z,96492.53
2022-09-07T17:51:10.825Z,96538.81
2022-09-07T17:55:08.144Z,96532.84
2022-09-07T18:03:22.257Z,96518.28
2022-09-07T18:07:19.258Z,96550.00
2022-09-07T18:15:42.484Z,96569.59
2022-09-07T18:19:39.703Z,96541.22
2022-09-07T18:23:39.790Z,96564.16
2022-09-07T18:27:37.865Z,96548.91
2022-09-07T18:31:35.071Z,96539.38
2022-09-07T18:35:32.347Z,96558.06
2022-09-07T18:39:29.775Z,96562.38
2022-09-07T18:43:27.949Z,96550.84
2022-09-07T18:47:28.796Z,96577.22
2022-09-07T18:51:26.736Z,96576.34
2022-09-07T18:55:24.238Z,96554.53
2022-09-07T18:59:21.319Z,96573.13
2022-09-07T19:03:18.298Z,96562.41
2022-09-07T19:07:15.581Z,96556.47
2022-09-07T19:11:24.168Z,96546.91
2022-09-07T19:15:21.121Z,96539.72
2022-09-07T19:19:18.210Z,96577.91
2022-09-07T19:23:15.220Z,96526.84
2022-09-07T19:27:12.363Z,96573.91
2022-09-07T19:31:09.455Z,96559.50
2022-09-07T19:35:06.888Z,96567.25
2022-09-07T19:39:05.787Z,96547.94
2022-09-07T19:43:03.155Z,96575.22
2022-09-07T19:47:01.008Z,96533.94
2022-09-07T19:51:04.352Z,96580.34
2022-09-07T19:55:03.494Z,96575.41
2022-09-07T19:59:00.466Z,96569.16
2022-09-07T20:02:57.785Z,96559.25
2022-09-07T20:06:54.704Z,96534.56
2022-09-07T20:10:51.686Z,96555.47
2022-09-07T20:14:48.679Z,96552.31
2022-09-07T20:18:46.419Z,96561.28
2022-09-07T20:22:43.450Z,96518.44
2022-09-07T20:26:40.491Z,96546.28
2022-09-07T20:30:43.884Z,96525.59
2022-09-07T20:34:40.865Z,96519.97
2022-09-07T20:38:44.346Z,96538.16
2022-09-07T20:42:41.290Z,96530.72
2022-09-07T20:46:38.367Z,96531.81
2022-09-07T20:50:35.468Z,96536.47
2022-09-07T20:54:35.082Z,96514.88
2022-09-07T20:58:33.265Z,96527.69
2022-09-07T21:02:31.562Z,96511.44
2022-09-07T21:06:31.185Z,96512.78
2022-09-07T21:10:28.173Z,96487.91
2022-09-07T21:14:25.417Z,96502.88
2022-09-07T21:18:22.928Z,96509.06
2022-09-07T21:22:19.938Z,96507.09
2022-09-07T21:26:20.986Z,96510.88
2022-09-07T21:30:18.220Z,96517.13
2022-09-07T21:34:16.391Z,96514.41
2022-09-07T21:38:13.383Z,96497.44
2022-09-07T21:42:10.489Z,96513.66
2022-09-07T21:46:10.532Z,96485.13
2022-09-07T21:50:08.025Z,96484.66
2022-09-07T21:54:05.312Z,96500.25
2022-09-07T21:58:02.320Z,96478.31
2022-09-07T22:01:59.395Z,96488.94
2022-09-07T22:05:56.437Z,96491.72
2022-09-07T22:09:55.165Z,96507.53
2022-09-07T22:13:57.633Z,96508.56
2022-09-07T22:17:55.275Z,96507.06
2022-09-07T22:21:53.439Z,96476.66
2022-09-07T22:25:53.369Z,96480.25
2022-09-07T22:29:50.355Z,96500.25
2022-09-07T22:33:49.870Z,96503.88
2022-09-07T22:37:46.927Z,96493.06
2022-09-07T22:41:45.562Z,96490.19
2022-09-07T22:45:42.481Z,96496.22
2022-09-07T22:49:39.451Z,96489.75
2022-09-07T22:53:40.350Z,96489.09
2022-09-07T22:57:37.554Z,96483.94
2022-09-07T23:01:36.517Z,96471.06
2022-09-07T23:05:37.283Z,96488.16
2022-09-07T23:09:34.433Z,96473.75
2022-09-07T23:13:33.371Z,96489.72
2022-09-07T23:17:31.108Z,96444.66
2022-09-07T23:21:28.621Z,96468.63
2022-09-07T23:25:29.652Z,96466.13
2022-09-07T23:29:26.686Z,96427.41
2022-09-07T23:33:23.840Z,96448.00
2022-09-07T23:37:21.164Z,96432.00
2022-09-07T23:41:18.122Z,96449.13
2022-09-07T23:45:17.645Z,96420.66
2022-09-07T23:49:14.744Z,96416.78
2022-09-07T23:53:13.058Z,96387.16
2022-09-07T23:57:10.111Z,96400.03
